Sf Marine 7 — POLICE — position and weather

sailwx.info

Track history (hours):
 
Tides and Currents Weather Stations Pressure Air Temp Water Temp Dewpoint Dewpoint Depression Visibility Wind Speed Wind Dir Waves Ship Positions

Sf Marine 7

Last reported at 2018-Apr-11 19:14 UTC. Time now 2018-Aug-19 15:19 UTC.
Position N 37°49' W 122°25'.
Warning: this ship's position is months out of date.

Length 11 m.

MMSI: 338142436.

Date/timePositionNaut miles runAvg speedWind from/ knotsBaromVisibWave heightAir tempDewpointWater temp
2018-Apr-11 19:14N 37°49' W 122°25'2 8.3
2018-Apr-11 19:00N 37°47' W 122°23'2 0.1
2018-Apr-10 21:23N 37°49' W 122°25'0 0.0
2018-Apr-09 23:26N 37°49' W 122°25'2 5.5
2018-Apr-09 23:01N 37°47' W 122°23'2 0.5
2018-Apr-09 18:22N 37°49' W 122°25'0 0.3
2018-Apr-09 18:01N 37°49' W 122°25'3 5.9
2018-Apr-09 17:30N 37°50' W 122°22'3 0.2
2018-Apr-09 02:07N 37°49' W 122°25'0 0.0
2018-Apr-09 02:00N 37°49' W 122°25'0 0.0
2018-Apr-09 01:30N 37°49' W 122°25'0 0.0
2018-Apr-09 01:00N 37°49' W 122°25'0 0.0
2018-Apr-09 00:30N 37°49' W 122°25'0 0.0
2018-Apr-08 22:43N 37°49' W 122°25'0 0.0
2018-Apr-08 22:30N 37°49' W 122°25'0 0.0
2018-Apr-08 22:00N 37°49' W 122°25'0 0.0
2018-Apr-08 00:06N 37°49' W 122°25'0 0.0
2018-Apr-08 00:00N 37°49' W 122°25'0 0.0
2018-Apr-07 23:30N 37°49' W 122°25'0 0.0
2018-Apr-07 23:00N 37°49' W 122°25'0 0.0
2018-Apr-07 22:31N 37°49' W 122°25'0 0.0
2018-Apr-07 21:03N 37°49' W 122°25'0 2.3
2018-Apr-07 21:00N 37°49' W 122°25'713.5
2018-Apr-07 20:31N 37°48' W 122°17'713.4
2018-Apr-07 20:00N 37°49' W 122°25'0 0.2
2018-Apr-07 19:30N 37°49' W 122°25'0 0.0
2018-Apr-07 19:00N 37°49' W 122°25'0 0.0
2018-Apr-07 18:30N 37°49' W 122°25'0 0.0
2018-Apr-07 18:00N 37°49' W 122°25'0 0.0
2018-Apr-06 23:56N 37°49' W 122°25'0 0.0
2018-Apr-06 22:56N 37°49' W 122°25'0 0.0
2018-Apr-06 15:45N 37°49' W 122°25'310.1
2018-Apr-06 15:30N 37°51' W 122°27'2 3.6
2018-Apr-06 15:00N 37°49' W 122°27'1 0.1
2018-Apr-06 00:01N 37°49' W 122°25'0 0.0
2018-Apr-06 00:01N 37°49' W 122°25'0 0.0
2018-Apr-05 15:40N 37°49' W 122°25'1 8.7
2018-Apr-05 15:30N 37°48' W 122°24'0 0.2
2018-Apr-05 15:00N 37°48' W 122°24'1 0.1
2018-Apr-04 23:44N 37°49' W 122°25'2 7.5
2018-Apr-04 23:30N 37°48' W 122°23'1 2.2
2018-Apr-04 23:01N 37°47' W 122°23'2 1.9
2018-Apr-04 21:41N 37°49' W 122°25'1 8.1
2018-Apr-04 21:30N 37°48' W 122°24'1 0.4
2018-Apr-04 18:11N 37°49' W 122°25'0 0.0
2018-Apr-04 18:00N 37°49' W 122°25'0 0.0
2018-Apr-04 17:30N 37°49' W 122°25'0 0.0
2018-Apr-04 17:00N 37°49' W 122°25'0 0.0
2018-Apr-04 16:28N 37°49' W 122°25'0 0.2
2018-Apr-04 16:00N 37°49' W 122°25'0 0.0
2018-Apr-03 23:30N 37°49' W 122°25'0 0.0
2018-Apr-03 21:14N 37°49' W 122°25'2 7.0
2018-Apr-03 21:00N 37°48' W 122°23'1 2.5
2018-Apr-03 20:30N 37°47' W 122°23'1 2.5
2018-Apr-03 20:00N 37°48' W 122°24'2 0.1
2018-Apr-02 22:33N 37°49' W 122°25'0 0.0
2018-Apr-02 20:44N 37°49' W 122°25'1 2.6
2018-Apr-02 20:31N 37°49' W 122°26'1 0.3
2018-Apr-02 18:29N 37°49' W 122°25'  
Track history (hours):
 
Tides and Currents Weather Stations Pressure Air Temp Water Temp Dewpoint Dewpoint Depression Visibility Wind Speed Wind Dir Waves Ship Positions

Sf Marine 7

Last reported at 2018-Apr-11 19:14 UTC. Time now 2018-Aug-19 15:19 UTC.
Position N 37°49' W 122°25'.
Warning: this ship's position is months out of date.

Length 11 m.

MMSI: 338142436.

Date/timePositionNaut miles runAvg speedWind from/ knotsBaromVisibWave heightAir tempDewpointWater temp
2018-Apr-11 19:14N 37°49' W 122°25'2 8.3
2018-Apr-11 19:00N 37°47' W 122°23'2 0.1
2018-Apr-10 21:23N 37°49' W 122°25'0 0.0
2018-Apr-09 23:26N 37°49' W 122°25'2 5.5
2018-Apr-09 23:01N 37°47' W 122°23'2 0.5
2018-Apr-09 18:22N 37°49' W 122°25'0 0.3
2018-Apr-09 18:01N 37°49' W 122°25'3 5.9
2018-Apr-09 17:30N 37°50' W 122°22'3 0.2
2018-Apr-09 02:07N 37°49' W 122°25'0 0.0
2018-Apr-09 02:00N 37°49' W 122°25'0 0.0
2018-Apr-09 01:30N 37°49' W 122°25'0 0.0
2018-Apr-09 01:00N 37°49' W 122°25'0 0.0
2018-Apr-09 00:30N 37°49' W 122°25'0 0.0
2018-Apr-08 22:43N 37°49' W 122°25'0 0.0
2018-Apr-08 22:30N 37°49' W 122°25'0 0.0
2018-Apr-08 22:00N 37°49' W 122°25'0 0.0
2018-Apr-08 00:06N 37°49' W 122°25'0 0.0
2018-Apr-08 00:00N 37°49' W 122°25'0 0.0
2018-Apr-07 23:30N 37°49' W 122°25'0 0.0
2018-Apr-07 23:00N 37°49' W 122°25'0 0.0
2018-Apr-07 22:31N 37°49' W 122°25'0 0.0
2018-Apr-07 21:03N 37°49' W 122°25'0 2.3
2018-Apr-07 21:00N 37°49' W 122°25'713.5
2018-Apr-07 20:31N 37°48' W 122°17'713.4
2018-Apr-07 20:00N 37°49' W 122°25'0 0.2
2018-Apr-07 19:30N 37°49' W 122°25'0 0.0
2018-Apr-07 19:00N 37°49' W 122°25'0 0.0
2018-Apr-07 18:30N 37°49' W 122°25'0 0.0
2018-Apr-07 18:00N 37°49' W 122°25'0 0.0
2018-Apr-06 23:56N 37°49' W 122°25'0 0.0
2018-Apr-06 22:56N 37°49' W 122°25'0 0.0
2018-Apr-06 15:45N 37°49' W 122°25'310.1
2018-Apr-06 15:30N 37°51' W 122°27'2 3.6
2018-Apr-06 15:00N 37°49' W 122°27'1 0.1
2018-Apr-06 00:01N 37°49' W 122°25'0 0.0
2018-Apr-06 00:01N 37°49' W 122°25'0 0.0
2018-Apr-05 15:40N 37°49' W 122°25'1 8.7
2018-Apr-05 15:30N 37°48' W 122°24'0 0.2
2018-Apr-05 15:00N 37°48' W 122°24'1 0.1
2018-Apr-04 23:44N 37°49' W 122°25'2 7.5
2018-Apr-04 23:30N 37°48' W 122°23'1 2.2
2018-Apr-04 23:01N 37°47' W 122°23'2 1.9
2018-Apr-04 21:41N 37°49' W 122°25'1 8.1
2018-Apr-04 21:30N 37°48' W 122°24'1 0.4
2018-Apr-04 18:11N 37°49' W 122°25'0 0.0
2018-Apr-04 18:00N 37°49' W 122°25'0 0.0
2018-Apr-04 17:30N 37°49' W 122°25'0 0.0
2018-Apr-04 17:00N 37°49' W 122°25'0 0.0
2018-Apr-04 16:28N 37°49' W 122°25'0 0.2
2018-Apr-04 16:00N 37°49' W 122°25'0 0.0
2018-Apr-03 23:30N 37°49' W 122°25'0 0.0
2018-Apr-03 21:14N 37°49' W 122°25'2 7.0
2018-Apr-03 21:00N 37°48' W 122°23'1 2.5
2018-Apr-03 20:30N 37°47' W 122°23'1 2.5
2018-Apr-03 20:00N 37°48' W 122°24'2 0.1
2018-Apr-02 22:33N 37°49' W 122°25'0 0.0
2018-Apr-02 20:44N 37°49' W 122°25'1 2.6
2018-Apr-02 20:31N 37°49' W 122°26'1 0.3
2018-Apr-02 18:29N 37°49' W 122°25'  

Dump ship's entire track history